This is the latest recevied weather packets stored in our database for station/object IW1RID-3. If no packets are shown the sender has not sent any weather packets the latest 10 day(s).
| Time | Temp. | Humidity | Pressure | Rain* | Wind** | Luminosity | Snow |
|---|---|---|---|---|---|---|---|
| 1787697423 | 23.33° C | 88% | 1071.4 hPa | - | - | - | - |
| 1787696217 | 23.33° C | 87% | 1071.2 hPa | - | - | - | - |
| 1787695009 | 23.89° C | 84% | 1071.2 hPa | - | - | - | - |
| 1787693803 | 23.89° C | 84% | 1071.1 hPa | - | - | - | - |
| 1787692598 | 24.44° C | 83% | 1071.1 hPa | - | - | - | - |
| 1787691393 | 25° C | 83% | 1070.8 hPa | - | - | - | - |
| 1787690187 | 24.44° C | 86% | 1070.7 hPa | - | - | - | - |
| 1787688982 | 24.44° C | 86% | 1070.6 hPa | - | - | - | - |
| 1787687778 | 25° C | 86% | 1070.3 hPa | - | - | - | - |
| 1787686574 | 25.56° C | 84% | 1070.1 hPa | - | - | - | - |
| 1787685368 | 25.56° C | 84% | 1069.7 hPa | - | - | - | - |
| 1787684163 | 26.11° C | 81% | 1069.3 hPa | - | - | - | - |
| 1787682955 | 26.67° C | 79% | 1069.3 hPa | - | - | - | - |
| 1787681749 | 27.22° C | 78% | 1069.2 hPa | - | - | - | - |
| 1787680543 | 26.67° C | 78% | 1069.1 hPa | - | - | - | - |
| 1787679338 | 27.22° C | 75% | 1068.8 hPa | - | - | - | - |
| 1787678133 | 29.44° C | 65% | 1068.8 hPa | - | - | - | - |
| 1787676927 | 30° C | 63% | 1068.9 hPa | - | - | - | - |
| 1787675722 | 30° C | 63% | 1068.9 hPa | - | - | - | - |
| 1787674517 | 30.56° C | 59% | 1069.1 hPa | - | - | - | - |
| 1787673311 | 31.67° C | 60% | 1069 hPa | - | - | - | - |
| 1787672106 | 30.56° C | 65% | 1069 hPa | - | - | - | - |
| 1787670901 | 30.56° C | 66% | 1068.9 hPa | - | - | - | - |
| 1787669695 | 31.11° C | 65% | 1069 hPa | - | - | - | - |
| 1787668490 | 28.89° C | 75% | 1068.5 hPa | - | - | - | - |
* Rain since midnight (hover to see other rain measurements)
** Current wind speed in m/s (hover to see current wind gust speed)